createdAt,value
2023-03-11T00:00:41.025Z,0.4
2023-03-11T00:01:41.116Z,0.41
2023-03-11T00:02:41.019Z,0.41
2023-03-11T00:03:41.054Z,0.41
2023-03-11T00:04:41.004Z,0.4
2023-03-11T00:05:41.104Z,0.4
2023-03-11T00:06:41.018Z,0.39
2023-03-11T00:07:41.015Z,0.39
2023-03-11T00:08:41.032Z,0.4
2023-03-11T00:09:41.118Z,0.41
2023-03-11T00:10:41.016Z,0.4
2023-03-11T00:11:41.015Z,0.38
2023-03-11T00:12:41.030Z,0.37
2023-03-11T00:13:41.039Z,0.38
2023-03-11T00:14:41.017Z,0.37
2023-03-11T00:15:41.022Z,0.37
2023-03-11T00:16:41.067Z,0.38
2023-03-11T00:17:41.020Z,0.4
2023-03-11T00:18:41.007Z,0.39
2023-03-11T00:19:41.014Z,0.37
2023-03-11T00:20:41.012Z,0.37
2023-03-11T00:21:41.033Z,0.39
2023-03-11T00:22:41.041Z,0.38
2023-03-11T00:23:41.018Z,0.39
2023-03-11T00:24:41.020Z,0.39
2023-03-11T00:25:41.012Z,0.37
2023-03-11T00:26:41.011Z,0.35
2023-03-11T00:27:41.040Z,0.36
2023-03-11T00:28:41.195Z,0.36
2023-03-11T00:29:41.017Z,0.34
2023-03-11T00:30:41.100Z,0.27
2023-03-11T00:31:41.012Z,0.29
2023-03-11T00:32:41.073Z,0.29
2023-03-11T00:33:41.011Z,0.29
2023-03-11T00:34:41.011Z,0.3
2023-03-11T00:35:41.137Z,0.27
2023-03-11T00:36:41.025Z,0.24
2023-03-11T00:37:41.040Z,0.24
2023-03-11T00:38:41.104Z,0.23
2023-03-11T00:39:41.025Z,0.2
2023-03-11T00:40:41.008Z,0.18
2023-03-11T00:41:41.008Z,0.15
2023-03-11T00:42:41.058Z,0.14
2023-03-11T00:43:41.029Z,0.12
2023-03-11T00:44:41.020Z,0.11
2023-03-11T00:45:41.035Z,0.07
2023-03-11T00:46:41.018Z,0.05
2023-03-11T00:47:41.032Z,0.05
2023-03-11T00:48:41.004Z,0.04
2023-03-11T00:49:41.021Z,0.02
2023-03-11T00:50:41.026Z,0.01
2023-03-11T00:51:41.013Z,0
2023-03-11T00:52:41.003Z,0
2023-03-11T00:53:41.005Z,-0.01
2023-03-11T00:54:41.005Z,0
2023-03-11T00:55:41.049Z,0
2023-03-11T00:56:41.341Z,-0.01
2023-03-11T00:57:41.311Z,0
2023-03-11T00:58:40.777Z,0
2023-03-11T00:59:41.010Z,0.02
2023-03-11T01:00:41.381Z,0.03
2023-03-11T01:01:41.083Z,0.03
2023-03-11T01:02:41.005Z,0.06
2023-03-11T01:03:41.019Z,0.05
2023-03-11T01:04:41.103Z,0.05
2023-03-11T01:05:41.026Z,0.06
2023-03-11T01:06:45.358Z,0.06
2023-03-11T01:07:41.010Z,0.06
2023-03-11T01:08:41.019Z,0.05
2023-03-11T01:09:41.017Z,0.07
2023-03-11T01:10:41.012Z,0.08
2023-03-11T01:11:41.007Z,0.1
2023-03-11T01:12:41.028Z,0.12
2023-03-11T01:13:41.102Z,0.11
2023-03-11T01:14:41.014Z,0.11
2023-03-11T01:15:41.335Z,0.1
2023-03-11T01:16:41.194Z,0.1
2023-03-11T01:17:41.291Z,0.12
2023-03-11T01:18:41.490Z,0.12
2023-03-11T01:19:41.383Z,0.14
2023-03-11T01:20:41.636Z,0.12
2023-03-11T01:21:41.537Z,0.15
2023-03-11T01:22:41.275Z,0.16
2023-03-11T01:23:41.244Z,0.16
2023-03-11T01:24:41.101Z,0.19
2023-03-11T01:25:41.282Z,0.19
2023-03-11T01:26:41.137Z,0.2
2023-03-11T01:27:41.283Z,0.21
2023-03-11T01:28:41.197Z,0.21
2023-03-11T01:29:41.005Z,0.22
2023-03-11T01:30:41.370Z,0.21
2023-03-11T01:31:41.004Z,0.24
2023-03-11T01:32:41.083Z,0.22
2023-03-11T01:33:41.014Z,0.23
2023-03-11T01:34:41.006Z,0.23
2023-03-11T01:35:41.055Z,0.25
2023-03-11T01:36:41.009Z,0.24
2023-03-11T01:37:41.000Z,0.23
2023-03-11T01:38:41.004Z,0.25
2023-03-11T01:39:41.022Z,0.25
2023-03-11T01:40:41.018Z,0.24
2023-03-11T01:41:41.004Z,0.25
2023-03-11T01:42:41.018Z,0.24
2023-03-11T01:43:41.007Z,0.26
2023-03-11T01:44:41.011Z,0.23
2023-03-11T01:45:41.014Z,0.23
2023-03-11T01:46:41.030Z,0.21
2023-03-11T01:47:41.007Z,0.23
2023-03-11T01:48:41.110Z,0.23
2023-03-11T01:49:41.008Z,0.23
2023-03-11T01:50:41.001Z,0.24
2023-03-11T01:51:41.012Z,0.22
2023-03-11T01:52:41.018Z,0.22
2023-03-11T01:53:41.032Z,0.2
2023-03-11T01:54:41.006Z,0.19
2023-03-11T01:55:41.070Z,0.17
2023-03-11T01:56:41.025Z,0.17
2023-03-11T01:57:41.041Z,0.17
2023-03-11T01:58:41.022Z,0.15
2023-03-11T01:59:41.154Z,0.14
2023-03-11T02:00:41.014Z,0.15
2023-03-11T02:01:41.082Z,0.16
2023-03-11T02:02:41.052Z,0.17
2023-03-11T02:03:41.006Z,0.18
2023-03-11T02:04:41.015Z,0.19
2023-03-11T02:05:41.021Z,0.2
2023-03-11T02:06:41.014Z,0.2
2023-03-11T02:07:41.005Z,0.19
2023-03-11T02:08:41.013Z,0.21
2023-03-11T02:09:41.006Z,0.2
2023-03-11T02:10:40.999Z,0.21
2023-03-11T02:11:41.007Z,0.22
2023-03-11T02:12:40.999Z,0.21
2023-03-11T02:13:41.062Z,0.21
2023-03-11T02:14:41.013Z,0.21
2023-03-11T02:15:41.054Z,0.21
2023-03-11T02:16:41.098Z,0.2
2023-03-11T02:17:41.003Z,0.19
2023-03-11T02:18:41.037Z,0.19
2023-03-11T02:19:41.003Z,0.2
2023-03-11T02:20:41.014Z,0.19
2023-03-11T02:21:41.024Z,0.19
2023-03-11T02:22:41.018Z,0.18
2023-03-11T02:23:41.016Z,0.18
2023-03-11T02:24:41.008Z,0.18
2023-03-11T02:25:41.010Z,0.18
2023-03-11T02:26:41.020Z,0.17
2023-03-11T02:27:41.072Z,0.19
2023-03-11T02:28:41.057Z,0.21
2023-03-11T02:29:41.016Z,0.21
2023-03-11T02:30:41.015Z,0.21
2023-03-11T02:31:44.139Z,0.22
2023-03-11T02:32:41.070Z,0.21
2023-03-11T02:33:41.017Z,0.22
2023-03-11T02:34:41.008Z,0.21
2023-03-11T02:35:41.048Z,0.22
2023-03-11T02:36:41.015Z,0.22
2023-03-11T02:37:41.027Z,0.23
2023-03-11T02:38:41.016Z,0.24
2023-03-11T02:39:41.018Z,0.24
2023-03-11T02:40:41.009Z,0.26
2023-03-11T02:41:41.011Z,0.26
2023-03-11T02:42:41.015Z,0.24
2023-03-11T02:43:41.021Z,0.24
2023-03-11T02:44:41.028Z,0.24
2023-03-11T02:45:41.019Z,0.24
2023-03-11T02:46:41.078Z,0.25
2023-03-11T02:47:41.023Z,0.26
2023-03-11T02:48:41.017Z,0.25
2023-03-11T02:49:41.014Z,0.24
2023-03-11T02:50:41.016Z,0.27
2023-03-11T02:51:41.020Z,0.27
2023-03-11T02:52:41.003Z,0.27
2023-03-11T02:53:41.014Z,0.28
2023-03-11T02:54:41.018Z,0.28
2023-03-11T02:55:41.016Z,0.29
2023-03-11T02:56:41.032Z,0.29
2023-03-11T02:57:41.088Z,0.29
2023-03-11T02:58:41.414Z,0.29
2023-03-11T02:59:41.417Z,0.26
2023-03-11T03:00:41.483Z,0.25
2023-03-11T03:01:41.420Z,0.22
2023-03-11T03:02:41.425Z,0.2
2023-03-11T03:03:41.414Z,0.2
2023-03-11T03:04:41.425Z,0.21
2023-03-11T03:05:41.419Z,0.21
2023-03-11T03:06:41.420Z,0.22
2023-03-11T03:07:41.432Z,0.23
2023-03-11T03:08:41.423Z,0.23
2023-03-11T03:09:41.433Z,0.25
2023-03-11T03:10:41.423Z,0.25
2023-03-11T03:11:41.621Z,0.25
2023-03-11T03:12:41.422Z,0.24
2023-03-11T03:13:41.432Z,0.24
2023-03-11T03:14:41.418Z,0.23
2023-03-11T03:15:41.424Z,0.22
2023-03-11T03:16:41.562Z,0.22
2023-03-11T03:17:41.753Z,0.24
2023-03-11T03:18:41.005Z,0.24
2023-03-11T03:19:41.211Z,0.24
2023-03-11T03:20:41.017Z,0.24
2023-03-11T03:21:41.006Z,0.24
2023-03-11T03:22:41.012Z,0.24
2023-03-11T03:23:41.082Z,0.24
2023-03-11T03:24:41.036Z,0.22
2023-03-11T03:25:41.003Z,0.24
2023-03-11T03:26:41.021Z,0.23
2023-03-11T03:27:41.008Z,0.23
2023-03-11T03:28:41.012Z,0.23
2023-03-11T03:29:41.004Z,0.25
2023-03-11T03:30:41.019Z,0.24
2023-03-11T03:31:41.042Z,0.22
2023-03-11T03:32:41.114Z,0.23
2023-03-11T03:33:41.005Z,0.24
2023-03-11T03:34:41.016Z,0.26
2023-03-11T03:35:41.037Z,0.25
2023-03-11T03:36:41.012Z,0.27
2023-03-11T03:37:41.025Z,0.28
2023-03-11T03:38:40.998Z,0.26
2023-03-11T03:39:41.011Z,0.24
2023-03-11T03:40:41.000Z,0.24
2023-03-11T03:41:41.007Z,0.26
2023-03-11T03:42:41.022Z,0.27
2023-03-11T03:43:41.003Z,0.25
2023-03-11T03:44:41.016Z,0.26
2023-03-11T03:45:41.038Z,0.26
2023-03-11T03:46:41.023Z,0.24
2023-03-11T03:47:41.036Z,0.24
2023-03-11T03:48:41.028Z,0.25
2023-03-11T03:49:41.006Z,0.26
2023-03-11T03:50:41.017Z,0.26
2023-03-11T03:51:41.023Z,0.25
2023-03-11T03:52:41.113Z,0.25
2023-03-11T03:53:40.998Z,0.24
2023-03-11T03:54:41.006Z,0.24
2023-03-11T03:55:41.009Z,0.24
2023-03-11T03:56:41.017Z,0.23
2023-03-11T03:57:41.063Z,0.23
2023-03-11T03:58:41.001Z,0.21
2023-03-11T03:59:41.001Z,0.19
2023-03-11T04:00:41.017Z,0.17
2023-03-11T04:01:41.010Z,0.15
2023-03-11T04:02:41.106Z,0.16
2023-03-11T04:03:41.200Z,0.15
2023-03-11T04:04:41.024Z,0.16
2023-03-11T04:05:41.022Z,0.15
2023-03-11T04:06:41.147Z,0.14
2023-03-11T04:07:41.042Z,0.13
2023-03-11T04:08:41.004Z,0.13
2023-03-11T04:09:41.015Z,0.13
2023-03-11T04:10:41.008Z,0.12
2023-03-11T04:11:41.010Z,0.12
2023-03-11T04:12:41.007Z,0.11
2023-03-11T04:13:41.040Z,0.09
2023-03-11T04:14:41.006Z,0.08
2023-03-11T04:15:41.003Z,0.09
2023-03-11T04:16:41.051Z,0.09
2023-03-11T04:17:41.016Z,0.07
2023-03-11T04:18:41.010Z,0.07
2023-03-11T04:19:41.007Z,0.06
2023-03-11T04:20:41.012Z,0.05
2023-03-11T04:21:41.030Z,0.04
2023-03-11T04:22:41.051Z,0.03
2023-03-11T04:23:41.093Z,0.02
2023-03-11T04:24:41.149Z,0.03
2023-03-11T04:25:41.315Z,0.02
2023-03-11T04:26:41.140Z,0.01
2023-03-11T04:27:41.005Z,0.01
2023-03-11T04:28:41.005Z,0
2023-03-11T04:29:41.326Z,0
2023-03-11T04:30:41.444Z,-0.01
2023-03-11T04:31:41.958Z,-0.02
2023-03-11T04:32:40.904Z,-0.01
2023-03-11T04:33:40.991Z,-0.03
2023-03-11T04:34:41.340Z,-0.03
2023-03-11T04:35:41.037Z,-0.03
2023-03-11T04:36:41.013Z,-0.03
2023-03-11T04:37:41.032Z,-0.03
2023-03-11T04:38:41.006Z,-0.03
2023-03-11T04:39:41.015Z,-0.03
2023-03-11T04:40:41.111Z,-0.02
2023-03-11T04:41:41.059Z,-0.03
2023-03-11T04:42:41.189Z,-0.02
2023-03-11T04:43:41.283Z,-0.03
2023-03-11T04:44:41.394Z,-0.03
2023-03-11T04:45:41.312Z,-0.03
2023-03-11T04:46:41.402Z,-0.03
2023-03-11T04:47:41.369Z,-0.02
2023-03-11T04:48:41.094Z,-0.01
2023-03-11T04:49:41.166Z,-0.01
2023-03-11T04:50:41.003Z,-0.01
2023-03-11T04:51:41.286Z,-0.01
2023-03-11T04:52:41.190Z,-0.01
2023-03-11T04:53:41.016Z,-0.01
2023-03-11T04:54:41.714Z,-0.01
2023-03-11T04:55:41.017Z,-0.01
2023-03-11T04:56:41.263Z,-0.01
2023-03-11T04:57:41.778Z,-0.02
2023-03-11T04:58:41.784Z,-0.02
2023-03-11T04:59:41.016Z,-0.03
2023-03-11T05:00:41.243Z,-0.02
2023-03-11T05:01:41.063Z,-0.03
2023-03-11T05:02:41.329Z,-0.04
2023-03-11T05:03:41.158Z,-0.04
2023-03-11T05:04:41.339Z,-0.03
2023-03-11T05:05:41.134Z,-0.04
2023-03-11T05:06:41.007Z,-0.04
2023-03-11T05:07:41.004Z,-0.04
2023-03-11T05:08:41.010Z,-0.04
2023-03-11T05:09:41.021Z,-0.03
2023-03-11T05:10:41.009Z,-0.04
2023-03-11T05:11:41.010Z,-0.04
2023-03-11T05:12:41.037Z,-0.04
2023-03-11T05:13:41.006Z,-0.05
2023-03-11T05:14:41.019Z,-0.04
2023-03-11T05:15:41.059Z,-0.06
2023-03-11T05:16:41.020Z,-0.06
2023-03-11T05:17:41.111Z,-0.07
2023-03-11T05:18:41.011Z,-0.06
2023-03-11T05:19:41.015Z,-0.06
2023-03-11T05:20:41.003Z,-0.06
2023-03-11T05:21:41.008Z,-0.05
2023-03-11T05:22:41.024Z,-0.05
2023-03-11T05:23:41.000Z,-0.05
2023-03-11T05:24:40.996Z,-0.05
2023-03-11T05:25:40.995Z,-0.05
2023-03-11T05:26:41.001Z,-0.05
2023-03-11T05:27:41.024Z,-0.06
2023-03-11T05:28:41.005Z,-0.03
2023-03-11T05:29:41.004Z,-0.03
2023-03-11T05:30:41.035Z,-0.03
2023-03-11T05:31:41.187Z,-0.02
2023-03-11T05:32:41.074Z,-0.01
2023-03-11T05:33:41.017Z,-0.01
2023-03-11T05:34:41.011Z,-0.01
2023-03-11T05:35:41.298Z,-0.02
2023-03-11T05:36:40.999Z,-0.01
2023-03-11T05:37:41.030Z,-0.03
2023-03-11T05:38:41.014Z,-0.03
2023-03-11T05:39:41.003Z,-0.04
2023-03-11T05:40:41.008Z,-0.04
2023-03-11T05:41:41.030Z,-0.05
2023-03-11T05:42:41.048Z,-0.04
2023-03-11T05:43:41.014Z,-0.02
2023-03-11T05:44:41.017Z,-0.03
2023-03-11T05:45:41.005Z,-0.03
2023-03-11T05:46:41.114Z,-0.03
2023-03-11T05:47:41.025Z,-0.04
2023-03-11T05:48:41.026Z,-0.04
2023-03-11T05:49:41.010Z,-0.04
2023-03-11T05:50:41.003Z,-0.05
2023-03-11T05:51:41.010Z,-0.06
2023-03-11T05:52:41.027Z,-0.05
2023-03-11T05:53:41.006Z,-0.05
2023-03-11T05:54:41.007Z,-0.05
2023-03-11T05:55:41.003Z,-0.04
2023-03-11T05:56:41.017Z,-0.04
2023-03-11T05:57:41.047Z,-0.03
2023-03-11T05:58:41.000Z,-0.04
2023-03-11T05:59:41.017Z,-0.04
2023-03-11T06:00:41.011Z,-0.03
2023-03-11T06:01:41.010Z,-0.05
2023-03-11T06:02:41.021Z,-0.03
2023-03-11T06:03:41.038Z,-0.05
2023-03-11T06:04:41.086Z,-0.04
2023-03-11T06:05:41.015Z,-0.04
2023-03-11T06:06:41.012Z,-0.04
2023-03-11T06:07:41.014Z,-0.03
2023-03-11T06:08:41.007Z,-0.03
2023-03-11T06:09:41.009Z,-0.03
2023-03-11T06:10:41.019Z,-0.03
2023-03-11T06:11:41.002Z,-0.05
2023-03-11T06:12:41.221Z,-0.05
2023-03-11T06:13:41.012Z,-0.02
2023-03-11T06:14:41.002Z,-0.02
2023-03-11T06:15:41.010Z,0
2023-03-11T06:16:41.110Z,0.01
2023-03-11T06:17:41.017Z,0.01
2023-03-11T06:18:40.994Z,0.02
2023-03-11T06:19:41.001Z,0.03
2023-03-11T06:20:41.017Z,0.02
2023-03-11T06:21:41.020Z,0.03
2023-03-11T06:22:41.032Z,0.03
2023-03-11T06:23:41.012Z,0.05
2023-03-11T06:24:41.005Z,0.05
2023-03-11T06:25:41.181Z,0.06
2023-03-11T06:26:41.012Z,0.05
2023-03-11T06:27:41.021Z,0.06
2023-03-11T06:28:41.014Z,0.06
2023-03-11T06:29:41.014Z,0.07
2023-03-11T06:30:41.011Z,0.08
2023-03-11T06:31:41.063Z,0.1
2023-03-11T06:32:41.095Z,0.11
2023-03-11T06:33:41.002Z,0.11
2023-03-11T06:34:41.007Z,0.12
2023-03-11T06:35:41.032Z,0.13
2023-03-11T06:36:41.023Z,0.14
2023-03-11T06:37:41.024Z,0.16
2023-03-11T06:38:41.058Z,0.18
2023-03-11T06:39:41.004Z,0.19
2023-03-11T06:40:41.005Z,0.19
2023-03-11T06:41:41.014Z,0.18
2023-03-11T06:42:41.009Z,0.2
2023-03-11T06:43:41.213Z,0.2
2023-03-11T06:44:41.457Z,0.2
2023-03-11T06:45:41.258Z,0.21
2023-03-11T06:46:41.041Z,0.22
2023-03-11T06:47:41.256Z,0.23
2023-03-11T06:48:41.530Z,0.24
2023-03-11T06:49:41.832Z,0.25
2023-03-11T06:50:42.077Z,0.26
2023-03-11T06:51:41.008Z,0.27
2023-03-11T06:52:41.220Z,0.27
2023-03-11T06:53:41.656Z,0.27
2023-03-11T06:54:41.014Z,0.27
2023-03-11T06:55:41.000Z,0.28
2023-03-11T06:56:41.004Z,0.28
2023-03-11T06:57:41.020Z,0.28
2023-03-11T06:58:41.023Z,0.28
2023-03-11T06:59:41.002Z,0.27
2023-03-11T07:00:44.313Z,0.26
2023-03-11T07:01:41.015Z,0.24
2023-03-11T07:02:41.003Z,0.23
2023-03-11T07:03:41.045Z,0.22
2023-03-11T07:04:41.008Z,0.21
2023-03-11T07:05:41.002Z,0.17
2023-03-11T07:06:41.012Z,0.14
2023-03-11T07:07:41.326Z,0.12
2023-03-11T07:08:41.040Z,0.11
2023-03-11T07:09:41.103Z,0.11
2023-03-11T07:10:41.005Z,0.08
2023-03-11T07:11:41.002Z,0.08
2023-03-11T07:12:41.013Z,0.05
2023-03-11T07:13:41.008Z,0.05
2023-03-11T07:14:40.999Z,0.06
2023-03-11T07:15:41.004Z,0.11
2023-03-11T07:16:41.109Z,0.3
2023-03-11T07:17:41.034Z,0.53
2023-03-11T07:18:41.012Z,0.81
2023-03-11T07:19:41.082Z,1.04
2023-03-11T07:20:41.146Z,1.25
2023-03-11T07:21:41.003Z,1.45
2023-03-11T07:22:41.005Z,1.65
2023-03-11T07:23:41.012Z,1.84
2023-03-11T07:24:41.276Z,2.09
2023-03-11T07:25:41.394Z,2.21
2023-03-11T07:26:42.641Z,2.33
2023-03-11T07:27:41.011Z,2.31
2023-03-11T07:28:41.061Z,2.4
2023-03-11T07:29:41.031Z,2.38
2023-03-11T07:30:41.049Z,2.47
2023-03-11T07:31:41.034Z,2.53
2023-03-11T07:32:41.045Z,2.51
2023-03-11T07:33:41.007Z,2.45
2023-03-11T07:34:41.011Z,2.35
2023-03-11T07:35:41.129Z,2.31
2023-03-11T07:36:41.020Z,2.22
2023-03-11T07:37:41.010Z,2.26
2023-03-11T07:38:42.003Z,2.29
2023-03-11T07:39:41.059Z,2.26
2023-03-11T07:40:41.203Z,2.17
2023-03-11T07:41:41.228Z,2.16
2023-03-11T07:42:41.249Z,2.2
2023-03-11T07:43:41.181Z,2.25
2023-03-11T07:44:41.005Z,2.32
2023-03-11T07:45:41.132Z,2.36
2023-03-11T07:46:41.044Z,2.31
2023-03-11T07:47:41.078Z,2.24
2023-03-11T07:48:41.023Z,2.12
2023-03-11T07:49:41.010Z,2.08
2023-03-11T07:50:41.008Z,2.04
2023-03-11T07:51:41.009Z,2.03
2023-03-11T07:52:41.009Z,2.02
2023-03-11T07:53:41.405Z,2.06
2023-03-11T07:54:41.015Z,2.08
2023-03-11T07:55:40.996Z,2.16
2023-03-11T07:56:41.030Z,2.2
2023-03-11T07:57:41.018Z,2.22
2023-03-11T07:58:41.003Z,2.25
2023-03-11T07:59:41.014Z,2.3
2023-03-11T08:00:41.000Z,2.38
2023-03-11T08:01:41.040Z,2.51
2023-03-11T08:02:41.051Z,2.6
2023-03-11T08:03:41.023Z,2.71
2023-03-11T08:04:41.131Z,2.78
2023-03-11T08:05:41.391Z,2.83
2023-03-11T08:06:41.330Z,2.87
2023-03-11T08:07:40.859Z,2.89
2023-03-11T08:08:41.110Z,2.91
2023-03-11T08:09:41.361Z,2.96
2023-03-11T08:10:41.013Z,3.01
2023-03-11T08:11:41.005Z,3.02
2023-03-11T08:12:41.010Z,3.03
2023-03-11T08:13:41.010Z,2.99
2023-03-11T08:14:41.002Z,2.98
2023-03-11T08:15:41.049Z,3.04
2023-03-11T08:16:41.049Z,3.1
2023-03-11T08:17:41.004Z,3.19
2023-03-11T08:18:41.230Z,3.31
2023-03-11T08:19:41.078Z,3.32
2023-03-11T08:20:41.007Z,3.38
2023-03-11T08:21:41.152Z,3.38
2023-03-11T08:22:57.183Z,3.41
2023-03-11T08:23:41.165Z,3.39
2023-03-11T08:24:41.405Z,3.42
2023-03-11T08:25:41.276Z,3.46
2023-03-11T08:26:41.112Z,3.48
2023-03-11T08:27:41.003Z,3.53
2023-03-11T08:28:41.274Z,3.57
2023-03-11T08:29:40.998Z,3.65
2023-03-11T08:30:42.199Z,3.68
2023-03-11T08:31:41.054Z,3.68
2023-03-11T08:32:41.285Z,3.61
2023-03-11T08:33:41.105Z,3.51
2023-03-11T08:34:41.001Z,3.45
2023-03-11T08:35:41.256Z,3.35
2023-03-11T08:36:41.017Z,3.35
2023-03-11T08:37:41.176Z,3.37
2023-03-11T08:38:41.175Z,3.43
2023-03-11T08:39:41.294Z,3.55
2023-03-11T08:40:41.135Z,3.68
2023-03-11T08:41:41.368Z,3.85
2023-03-11T08:42:41.021Z,3.99
2023-03-11T08:43:41.007Z,4.02
2023-03-11T08:44:41.201Z,4.03
2023-03-11T08:45:41.219Z,4.03
2023-03-11T08:46:41.083Z,4.08
2023-03-11T08:47:41.008Z,4.12
2023-03-11T08:48:41.034Z,4.21
2023-03-11T08:49:41.073Z,4.24
2023-03-11T08:50:53.700Z,4.3
2023-03-11T08:51:41.010Z,4.24
2023-03-11T08:52:41.176Z,4.25
2023-03-11T08:53:41.133Z,4.25
2023-03-11T08:54:41.084Z,4.33
2023-03-11T08:55:41.068Z,4.42
2023-03-11T08:56:41.098Z,4.5
2023-03-11T08:57:41.123Z,4.52
2023-03-11T08:58:41.009Z,4.53
2023-03-11T08:59:41.011Z,4.49
2023-03-11T09:00:41.048Z,4.55
2023-03-11T09:01:41.008Z,4.62
2023-03-11T09:02:41.088Z,4.71
2023-03-11T09:03:41.030Z,4.8
2023-03-11T09:04:41.003Z,4.85
2023-03-11T09:05:41.086Z,4.83
2023-03-11T09:06:41.304Z,4.81
2023-03-11T09:07:41.049Z,4.86
2023-03-11T09:08:41.054Z,4.93
2023-03-11T09:09:41.116Z,4.98
2023-03-11T09:10:40.997Z,5.01
2023-03-11T09:11:41.009Z,4.97
2023-03-11T09:12:41.014Z,4.88
2023-03-11T09:13:41.006Z,4.88
2023-03-11T09:14:41.002Z,4.94
2023-03-11T09:15:41.007Z,5.02
2023-03-11T09:16:40.997Z,5.02
2023-03-11T09:17:41.022Z,4.84
2023-03-11T09:18:41.005Z,4.94
2023-03-11T09:19:41.026Z,4.9
2023-03-11T09:20:41.015Z,4.93
2023-03-11T09:21:41.101Z,5.02
2023-03-11T09:22:41.004Z,5.16
2023-03-11T09:23:44.581Z,5.35
2023-03-11T09:24:41.002Z,5.49
2023-03-11T09:25:41.006Z,5.31
2023-03-11T09:26:41.006Z,5.24
2023-03-11T09:27:41.005Z,5.25
2023-03-11T09:28:41.029Z,5.37
2023-03-11T09:29:41.008Z,5.49
2023-03-11T09:30:41.001Z,5.74
2023-03-11T09:31:41.051Z,5.99
2023-03-11T09:32:41.074Z,6.33
2023-03-11T09:33:41.021Z,6.62
2023-03-11T09:34:41.014Z,6.73
2023-03-11T09:35:41.064Z,6.59
2023-03-11T09:36:41.018Z,6.46
2023-03-11T09:37:41.028Z,6.21
2023-03-11T09:38:41.006Z,5.96
2023-03-11T09:39:41.000Z,5.78
2023-03-11T09:40:41.013Z,5.66
2023-03-11T09:41:55.642Z,5.73
2023-03-11T09:42:41.027Z,5.59
2023-03-11T09:43:41.016Z,5.12
2023-03-11T09:44:41.015Z,5.09
2023-03-11T09:45:41.010Z,4.86
2023-03-11T09:46:41.033Z,4.65
2023-03-11T09:47:41.017Z,4.59
2023-03-11T09:48:41.003Z,4.59
2023-03-11T09:49:41.014Z,4.56
2023-03-11T09:50:41.007Z,4.57
2023-03-11T09:51:41.005Z,4.53
2023-03-11T09:52:41.288Z,4.48
2023-03-11T09:53:41.028Z,4.49
2023-03-11T09:54:41.002Z,4.53
2023-03-11T09:55:41.015Z,4.5
2023-03-11T09:56:42.877Z,4.76
2023-03-11T09:57:41.004Z,4.8
2023-03-11T09:58:41.004Z,4.71
2023-03-11T09:59:41.072Z,4.59
2023-03-11T10:00:41.017Z,4.44
2023-03-11T10:01:41.112Z,4.41
2023-03-11T10:02:41.104Z,4.4
2023-03-11T10:03:41.098Z,4.37
2023-03-11T10:04:41.001Z,4.35
2023-03-11T10:05:41.002Z,4.28
2023-03-11T10:06:41.004Z,4.16
2023-03-11T10:07:41.016Z,4.08
2023-03-11T10:08:40.998Z,4.04
2023-03-11T10:09:41.006Z,4.18
2023-03-11T10:10:41.006Z,4.36
2023-03-11T10:11:41.014Z,4.63
2023-03-11T10:12:41.011Z,5.05
2023-03-11T10:13:41.002Z,5.49
2023-03-11T10:14:41.007Z,5.89
2023-03-11T10:15:41.023Z,6.27
2023-03-11T10:16:41.049Z,6.61
2023-03-11T10:17:41.020Z,6.98
2023-03-11T10:18:41.271Z,7.43
2023-03-11T10:19:41.508Z,7.79
2023-03-11T10:20:41.264Z,7.83
2023-03-11T10:21:41.086Z,7.33
2023-03-11T10:22:41.326Z,7.11
2023-03-11T10:23:41.599Z,7.03
2023-03-11T10:24:41.285Z,7.05
2023-03-11T10:25:41.002Z,7.31
2023-03-11T10:26:41.064Z,7.67
2023-03-11T10:27:42.692Z,7.79
2023-03-11T10:28:41.008Z,7.83
2023-03-11T10:29:41.004Z,7.76
2023-03-11T10:30:41.166Z,7.72
2023-03-11T10:31:41.071Z,7.48
2023-03-11T10:32:41.078Z,7.42
2023-03-11T10:33:41.007Z,7.3
2023-03-11T10:34:41.032Z,7.03
2023-03-11T10:35:41.067Z,6.91
2023-03-11T10:36:41.010Z,6.83
2023-03-11T10:37:49.570Z,6.93
2023-03-11T10:38:41.002Z,6.97
2023-03-11T10:39:41.013Z,7.07
2023-03-11T10:40:41.007Z,7.32
2023-03-11T10:41:41.086Z,7.65
2023-03-11T10:42:41.041Z,8.16
2023-03-11T10:43:41.026Z,8.44
2023-03-11T10:44:41.003Z,8.55
2023-03-11T10:45:41.057Z,8.37
2023-03-11T10:46:41.000Z,8.42
2023-03-11T10:47:41.003Z,8.55
2023-03-11T10:48:41.003Z,8.69
2023-03-11T10:49:41.006Z,8.78
2023-03-11T10:50:41.005Z,8.91
2023-03-11T10:51:41.002Z,9.15
2023-03-11T10:52:41.017Z,9.39
2023-03-11T10:53:41.001Z,9.58
2023-03-11T10:54:41.008Z,9.6
2023-03-11T10:55:41.006Z,9.7
2023-03-11T10:56:41.007Z,9.53
2023-03-11T10:57:41.052Z,9.61
2023-03-11T10:58:41.020Z,9.72
2023-03-11T10:59:41.001Z,9.74
2023-03-11T11:00:41.002Z,8.75
2023-03-11T11:01:41.006Z,8.65
2023-03-11T11:02:44.000Z,8.61
2023-03-11T11:03:41.032Z,8.62
2023-03-11T11:04:41.008Z,8.59
2023-03-11T11:05:41.001Z,8.62
2023-03-11T11:06:41.005Z,8.6
2023-03-11T11:07:41.013Z,8.4
2023-03-11T11:08:41.012Z,7.8
2023-03-11T11:09:41.010Z,7.24
2023-03-11T11:10:41.104Z,7.22
2023-03-11T11:11:41.009Z,7.07
2023-03-11T11:12:41.012Z,6.9
2023-03-11T11:13:41.011Z,6.74
2023-03-11T11:14:41.031Z,6.77
2023-03-11T11:15:41.010Z,6.36
2023-03-11T11:16:41.061Z,6.33
2023-03-11T11:17:41.012Z,6.18
2023-03-11T11:18:41.004Z,6.34
2023-03-11T11:19:41.024Z,6.42
2023-03-11T11:20:41.211Z,6.23
2023-03-11T11:21:41.016Z,6.28
2023-03-11T11:22:41.006Z,6.32
2023-03-11T11:23:41.015Z,6.42
2023-03-11T11:24:41.007Z,6.2
2023-03-11T11:25:41.185Z,5.71
2023-03-11T11:26:41.007Z,5.64
2023-03-11T11:27:41.007Z,5.61
2023-03-11T11:28:41.062Z,5.67
2023-03-11T11:29:41.026Z,5.77
2023-03-11T11:30:41.017Z,6.03
2023-03-11T11:31:41.029Z,6.32
2023-03-11T11:32:41.051Z,6.72
2023-03-11T11:33:41.007Z,6.99
2023-03-11T11:34:40.999Z,7.43
2023-03-11T11:35:41.024Z,7.83
2023-03-11T11:36:41.012Z,8.32
2023-03-11T11:37:41.008Z,8.67
2023-03-11T11:38:41.263Z,8.9
2023-03-11T11:39:41.350Z,8.79
2023-03-11T11:40:46.416Z,8.85
2023-03-11T11:41:41.024Z,8.83
2023-03-11T11:42:41.027Z,8.91
2023-03-11T11:43:41.006Z,7.99
2023-03-11T11:44:41.017Z,7.72
2023-03-11T11:45:41.017Z,7.73
2023-03-11T11:46:41.004Z,8
2023-03-11T11:47:41.030Z,8.18
2023-03-11T11:48:41.189Z,8.32
2023-03-11T11:49:41.007Z,8.56
2023-03-11T11:50:41.015Z,8.89
2023-03-11T11:51:41.031Z,9.1
2023-03-11T11:52:41.171Z,9.1
2023-03-11T11:53:41.005Z,8.94
2023-03-11T11:54:41.430Z,8.75
2023-03-11T11:55:41.130Z,8.7
2023-03-11T11:56:41.243Z,8.74
2023-03-11T11:57:41.026Z,8.75
2023-03-11T11:58:41.272Z,8.55
2023-03-11T11:59:41.494Z,8.46
2023-03-11T12:00:41.005Z,8.5
2023-03-11T12:01:41.144Z,8.11
2023-03-11T12:02:41.051Z,7.8
2023-03-11T12:03:41.137Z,7.86
2023-03-11T12:04:40.996Z,8.03
2023-03-11T12:05:41.280Z,8.14
2023-03-11T12:06:41.140Z,8.33
2023-03-11T12:07:41.390Z,8.62
2023-03-11T12:08:41.005Z,8.92
2023-03-11T12:09:41.176Z,9.29
2023-03-11T12:10:40.996Z,9.61
2023-03-11T12:11:42.534Z,9.78
2023-03-11T12:12:40.995Z,10.13
2023-03-11T12:13:41.268Z,10.12
2023-03-11T12:14:41.095Z,10.36
2023-03-11T12:15:41.021Z,10.02
2023-03-11T12:16:41.030Z,10.18
2023-03-11T12:17:41.033Z,10.37
2023-03-11T12:18:41.001Z,10.26
2023-03-11T12:19:41.009Z,10.01
2023-03-11T12:20:40.997Z,9.57
2023-03-11T12:21:41.012Z,9.32
2023-03-11T12:22:41.002Z,9.06
2023-03-11T12:23:41.029Z,8.77
2023-03-11T12:24:40.997Z,8.63
2023-03-11T12:25:41.035Z,8.46
2023-03-11T12:26:41.010Z,8.3
2023-03-11T12:27:41.004Z,8.06
2023-03-11T12:28:41.029Z,7.74
2023-03-11T12:29:42.800Z,7.41
2023-03-11T12:30:41.002Z,7.27
2023-03-11T12:31:41.115Z,7.19
2023-03-11T12:32:41.032Z,7.02
2023-03-11T12:33:40.998Z,6.89
2023-03-11T12:34:41.038Z,6.9
2023-03-11T12:35:41.050Z,6.78
2023-03-11T12:36:41.008Z,6.94
2023-03-11T12:37:41.017Z,7.12
2023-03-11T12:38:41.007Z,7.3
2023-03-11T12:39:41.020Z,7.2
2023-03-11T12:40:41.004Z,7
2023-03-11T12:41:41.010Z,6.61
2023-03-11T12:42:41.024Z,6.71
2023-03-11T12:43:41.055Z,6.87
2023-03-11T12:44:41.372Z,7.02
2023-03-11T12:45:41.007Z,7.19
2023-03-11T12:46:41.106Z,7.33
2023-03-11T12:47:41.013Z,7.49
2023-03-11T12:48:41.004Z,7.55
2023-03-11T12:49:41.035Z,7.5
2023-03-11T12:50:41.022Z,7.5
2023-03-11T12:51:41.012Z,7.52
2023-03-11T12:52:41.004Z,7.66
2023-03-11T12:53:41.001Z,7.75
2023-03-11T12:54:41.003Z,7.9
2023-03-11T12:55:41.011Z,8.06
2023-03-11T12:56:41.027Z,8.14
2023-03-11T12:57:41.012Z,8.24
2023-03-11T12:58:41.008Z,8.51
2023-03-11T12:59:41.005Z,8.87
2023-03-11T13:00:41.012Z,9.13
2023-03-11T13:01:41.042Z,9.14
2023-03-11T13:02:41.022Z,8.56
2023-03-11T13:03:41.022Z,8.31
2023-03-11T13:04:41.007Z,7.94
2023-03-11T13:05:41.001Z,7.78
2023-03-11T13:06:41.014Z,7.64
2023-03-11T13:07:41.012Z,7.72
2023-03-11T13:08:41.016Z,7.93
2023-03-11T13:09:41.017Z,8.2
2023-03-11T13:10:41.005Z,8.46
2023-03-11T13:11:41.017Z,8.78
2023-03-11T13:12:41.059Z,9
2023-03-11T13:13:41.120Z,9.21
2023-03-11T13:14:41.050Z,9.35
2023-03-11T13:15:41.004Z,9.23
2023-03-11T13:16:41.063Z,9.25
2023-03-11T13:17:41.024Z,9.21